Time,TemperatureF,DewpointF,PressureIn,WindDirection,WindDirectionDegrees,WindSpeedMPH,WindSpeedGustMPH,Humidity,HourlyPrecipIn,Conditions,Clouds,dailyrainin,SoftwareType,DateUTC
2013-03-27 00:03:00,41.0,32.0,29.92,NW,320,6.0,-999.0,70,-99.99,,,-99.99,,2013-03-27 04:03:00,
2013-03-27 00:13:00,41.0,32.0,29.92,WNW,300,5.0,-999.0,70,-99.99,,,-99.99,,2013-03-27 04:13:00,
2013-03-27 00:23:00,41.0,32.0,29.92,WNW,300,6.0,-999.0,70,-99.99,,,-99.99,,2013-03-27 04:23:00,
2013-03-27 00:33:00,39.0,32.0,29.92,NW,310,3.0,-999.0,75,-99.99,,,-99.99,,2013-03-27 04:33:00,
2013-03-27 00:42:00,41.0,32.0,29.92,WNW,300,7.0,-999.0,70,-99.99,,,-99.99,,2013-03-27 04:42:00,
2013-03-27 00:52:00,41.0,32.0,29.93,NW,320,9.0,16.0,70,-99.99,,,-99.99,,2013-03-27 04:52:00,
2013-03-27 01:02:00,41.0,32.0,29.93,NW,320,9.0,16.0,70,-99.99,,,-99.99,,2013-03-27 05:02:00,
2013-03-27 01:12:00,41.0,32.0,29.93,WNW,300,12.0,-999.0,70,-99.99,,,-99.99,,2013-03-27 05:12:00,
2013-03-27 01:23:00,41.0,32.0,29.92,WNW,290,10.0,16.0,70,-99.99,,,-99.99,,2013-03-27 05:23:00,
2013-03-27 01:33:00,45.0,28.0,29.92,NNW,330,7.0,-999.0,52,-99.99,,,-99.99,,2013-03-27 05:33:00,
2013-03-27 01:42:00,45.0,28.0,29.92,NNW,340,7.0,-999.0,52,-99.99,,,-99.99,,2013-03-27 05:42:00,
2013-03-27 01:52:00,43.0,28.0,29.92,WNW,290,7.0,-999.0,56,-99.99,,,-99.99,,2013-03-27 05:52:00,
2013-03-27 02:02:00,43.0,28.0,29.92,WNW,290,7.0,-999.0,56,-99.99,,,-99.99,,2013-03-27 06:02:00,
2013-03-27 02:12:00,41.0,28.0,29.93,WNW,290,5.0,-999.0,60,-99.99,,,-99.99,,2013-03-27 06:12:00,
2013-03-27 02:22:00,39.0,30.0,29.93,NW,320,3.0,-999.0,69,-99.99,,,-99.99,,2013-03-27 06:22:00,
2013-03-27 02:32:00,39.0,30.0,29.93,NW,310,5.0,-999.0,69,-99.99,,,-99.99,,2013-03-27 06:32:00,
2013-03-27 02:42:00,37.0,32.0,29.93,NW,310,3.0,-999.0,80,-99.99,,,-99.99,,2013-03-27 06:42:00,
2013-03-27 02:52:00,37.0,32.0,29.92,WNW,300,3.0,-999.0,80,-99.99,,,-99.99,,2013-03-27 06:52:00,
2013-03-27 03:02:00,37.0,32.0,29.92,WNW,300,3.0,-999.0,80,-99.99,,,-99.99,,2013-03-27 07:02:00,
2013-03-27 03:12:00,37.0,32.0,29.92,WNW,290,3.0,-999.0,80,-99.99,,,-99.99,,2013-03-27 07:12:00,
2013-03-27 03:22:00,37.0,32.0,29.92,WNW,300,6.0,-999.0,80,-99.99,,,-99.99,,2013-03-27 07:22:00,
2013-03-27 03:32:00,37.0,32.0,29.92,NW,310,7.0,-999.0,80,-99.99,,,-99.99,,2013-03-27 07:32:00,
2013-03-27 03:42:00,37.0,34.0,29.92,WNW,300,6.0,-999.0,86,-99.99,,,-99.99,,2013-03-27 07:42:00,
2013-03-27 03:53:00,37.0,32.0,29.92,WNW,300,3.0,-999.0,80,-99.99,,,-99.99,,2013-03-27 07:53:00,
2013-03-27 04:02:00,37.0,32.0,29.92,WNW,300,3.0,-999.0,80,-99.99,,,-99.99,,2013-03-27 08:02:00,
2013-03-27 04:12:00,37.0,32.0,29.92,WNW,300,6.0,-999.0,80,-99.99,,,-99.99,,2013-03-27 08:12:00,
2013-03-27 04:22:00,37.0,32.0,29.92,West,280,6.0,-999.0,80,-99.99,,,-99.99,,2013-03-27 08:22:00,
2013-03-27 04:32:00,37.0,32.0,29.92,NW,310,5.0,-999.0,80,-99.99,,,-99.99,,2013-03-27 08:32:00,
2013-03-27 04:43:00,37.0,32.0,29.93,NW,310,7.0,-999.0,80,-99.99,,,-99.99,,2013-03-27 08:43:00,
2013-03-27 04:52:00,37.0,32.0,29.93,NNW,340,8.0,-999.0,80,-99.99,,,-99.99,,2013-03-27 08:52:00,
2013-03-27 05:02:00,37.0,32.0,29.93,NNW,340,8.0,-999.0,80,-99.99,,,-99.99,,2013-03-27 09:02:00,
2013-03-27 05:12:00,37.0,32.0,29.93,NW,310,5.0,-999.0,80,-99.99,,,-99.99,,2013-03-27 09:12:00,
2013-03-27 05:22:00,36.0,32.0,29.94,NNW,330,5.0,-999.0,86,-99.99,,,-99.99,,2013-03-27 09:22:00,
2013-03-27 05:32:00,36.0,32.0,29.94,WNW,300,5.0,-999.0,86,-99.99,,,-99.99,,2013-03-27 09:32:00,
2013-03-27 05:42:00,36.0,30.0,29.94,NNW,330,5.0,-999.0,80,-99.99,,,-99.99,,2013-03-27 09:42:00,
2013-03-27 05:52:00,36.0,32.0,29.94,NNW,330,3.0,-999.0,86,-99.99,,,-99.99,,2013-03-27 09:52:00,
2013-03-27 06:03:00,36.0,32.0,29.94,NNW,330,3.0,-999.0,86,-99.99,,,-99.99,,2013-03-27 10:03:00,
2013-03-27 06:12:00,36.0,32.0,29.95,WNW,300,2.0,-999.0,86,-99.99,,,-99.99,,2013-03-27 10:12:00,
2013-03-27 06:23:00,34.0,32.0,29.95,WNW,300,2.0,-999.0,93,-99.99,,,-99.99,,2013-03-27 10:23:00,
2013-03-27 06:32:00,32.0,30.0,29.95,WNW,290,2.0,-999.0,92,-99.99,,,-99.99,,2013-03-27 10:32:00,
2013-03-27 06:42:00,32.0,30.0,29.95,West,280,3.0,-999.0,92,-99.99,,,-99.99,,2013-03-27 10:42:00,
2013-03-27 06:52:00,32.0,30.0,29.96,WNW,290,3.0,-999.0,92,-99.99,,,-99.99,,2013-03-27 10:52:00,
2013-03-27 07:03:00,32.0,30.0,29.96,WNW,290,3.0,-999.0,92,-99.99,,,-99.99,,2013-03-27 11:03:00,
2013-03-27 07:12:00,32.0,30.0,29.97,NW,310,3.0,-999.0,92,-99.99,,,-99.99,,2013-03-27 11:12:00,
2013-03-27 07:22:00,32.0,32.0,29.97,West,280,2.0,-999.0,100,-99.99,,,-99.99,,2013-03-27 11:22:00,
2013-03-27 07:32:00,32.0,32.0,29.98,NW,310,3.0,-999.0,100,-99.99,,,-99.99,,2013-03-27 11:32:00,
2013-03-27 07:42:00,34.0,32.0,29.98,NW,310,3.0,-999.0,93,-99.99,,,-99.99,,2013-03-27 11:42:00,
2013-03-27 07:52:00,36.0,32.0,29.98,WNW,300,3.0,-999.0,86,-99.99,,,-99.99,,2013-03-27 11:52:00,
2013-03-27 08:02:00,36.0,32.0,29.98,WNW,300,3.0,-999.0,86,-99.99,,,-99.99,,2013-03-27 12:02:00,
2013-03-27 08:12:00,36.0,32.0,29.99,WNW,290,3.0,-999.0,86,-99.99,,,-99.99,,2013-03-27 12:12:00,
2013-03-27 08:23:00,36.0,32.0,29.99,WNW,300,5.0,-999.0,86,-99.99,,,-99.99,,2013-03-27 12:23:00,
2013-03-27 08:32:00,37.0,32.0,30.00,WNW,300,6.0,-999.0,80,-99.99,,,-99.99,,2013-03-27 12:32:00,
2013-03-27 08:43:00,39.0,32.0,30.00,NW,320,6.0,-999.0,75,-99.99,,,-99.99,,2013-03-27 12:43:00,
2013-03-27 08:52:00,39.0,32.0,30.00,NW,320,7.0,-999.0,75,-99.99,,,-99.99,,2013-03-27 12:52:00,
2013-03-27 09:02:00,39.0,32.0,30.00,NW,320,7.0,-999.0,75,-99.99,,,-99.99,,2013-03-27 13:02:00,
2013-03-27 09:12:00,39.0,32.0,30.00,NNW,340,3.0,-999.0,75,-99.99,,,-99.99,,2013-03-27 13:12:00,
2013-03-27 09:22:00,43.0,32.0,30.00,NW,320,12.0,-999.0,65,-99.99,,,-99.99,,2013-03-27 13:22:00,
2013-03-27 09:32:00,43.0,32.0,30.00,NNW,330,9.0,17.0,65,-99.99,,,-99.99,,2013-03-27 13:32:00,
2013-03-27 09:42:00,45.0,30.0,30.00,WNW,300,12.0,-999.0,56,-99.99,,,-99.99,,2013-03-27 13:42:00,
2013-03-27 09:52:00,45.0,32.0,30.00,NNW,330,15.0,20.0,61,-99.99,,,-99.99,,2013-03-27 13:52:00,
2013-03-27 10:02:00,45.0,32.0,30.00,NNW,330,15.0,20.0,61,-99.99,,,-99.99,,2013-03-27 14:02:00,
2013-03-27 10:12:00,46.0,32.0,30.00,NW,320,13.0,17.0,57,-99.99,,,-99.99,,2013-03-27 14:12:00,
2013-03-27 10:22:00,46.0,30.0,30.00,NW,310,14.0,21.0,52,-99.99,,,-99.99,,2013-03-27 14:22:00,
2013-03-27 10:32:00,46.0,30.0,30.00,North,350,10.0,-999.0,52,-99.99,,,-99.99,,2013-03-27 14:32:00,
2013-03-27 10:42:00,46.0,30.0,30.00,NW,310,8.0,-999.0,52,-99.99,,,-99.99,,2013-03-27 14:42:00,
2013-03-27 10:52:00,46.0,28.0,30.00,NNW,340,15.0,22.0,49,-99.99,,,-99.99,,2013-03-27 14:52:00,
2013-03-27 11:02:00,46.0,28.0,30.00,NNW,340,15.0,22.0,49,-99.99,,,-99.99,,2013-03-27 15:02:00,
2013-03-27 11:12:00,48.0,28.0,29.99,North,350,16.0,16.0,46,-99.99,,,-99.99,,2013-03-27 15:12:00,
2013-03-27 11:22:00,48.0,28.0,29.99,West,280,10.0,22.0,46,-99.99,,,-99.99,,2013-03-27 15:22:00,
2013-03-27 11:33:00,48.0,28.0,29.99,WNW,300,12.0,22.0,46,-99.99,,,-99.99,,2013-03-27 15:33:00,
2013-03-27 11:42:00,48.0,28.0,29.99,NW,310,12.0,20.0,46,-99.99,,,-99.99,,2013-03-27 15:42:00,
2013-03-27 11:52:00,50.0,28.0,29.99,NW,310,13.0,-999.0,43,-99.99,,,-99.99,,2013-03-27 15:52:00,
2013-03-27 12:03:00,50.0,28.0,29.99,NW,310,13.0,-999.0,43,-99.99,,,-99.99,,2013-03-27 16:03:00,
2013-03-27 12:13:00,48.0,27.0,29.98,NNW,330,10.0,20.0,42,-99.99,,,-99.99,,2013-03-27 16:13:00,
2013-03-27 12:22:00,48.0,27.0,29.98,WNW,300,14.0,18.0,42,-99.99,,,-99.99,,2013-03-27 16:22:00,
2013-03-27 12:33:00,48.0,27.0,29.97,NNW,330,8.0,21.0,42,-99.99,,,-99.99,,2013-03-27 16:33:00,
2013-03-27 12:42:00,52.0,27.0,29.97,WNW,300,7.0,21.0,37,-99.99,,,-99.99,,2013-03-27 16:42:00,
2013-03-27 12:52:00,50.0,25.0,29.97,NNW,330,20.0,23.0,37,-99.99,,,-99.99,,2013-03-27 16:52:00,
2013-03-27 13:03:00,50.0,25.0,29.97,NNW,330,20.0,23.0,37,-99.99,,,-99.99,,2013-03-27 17:03:00,
2013-03-27 13:12:00,48.0,25.0,29.97,NW,320,12.0,17.0,39,-99.99,,,-99.99,,2013-03-27 17:12:00,
2013-03-27 13:22:00,50.0,27.0,29.97,NW,310,15.0,22.0,39,-99.99,,,-99.99,,2013-03-27 17:22:00,
2013-03-27 13:32:00,50.0,27.0,29.97,NNW,330,5.0,17.0,39,-99.99,,,-99.99,,2013-03-27 17:32:00,
2013-03-27 13:44:00,54.0,25.0,29.96,WNW,300,21.0,22.0,32,-99.99,,,-99.99,,2013-03-27 17:44:00,
2013-03-27 13:52:00,50.0,25.0,29.97,NW,310,15.0,24.0,37,-99.99,,,-99.99,,2013-03-27 17:52:00,
2013-03-27 14:02:00,50.0,25.0,29.97,NW,310,15.0,24.0,37,-99.99,,,-99.99,,2013-03-27 18:02:00,
2013-03-27 14:12:00,48.0,23.0,29.96,NNW,340,9.0,22.0,36,-99.99,,,-99.99,,2013-03-27 18:12:00,
2013-03-27 14:22:00,50.0,25.0,29.96,WNW,290,14.0,20.0,37,-99.99,,,-99.99,,2013-03-27 18:22:00,
2013-03-27 14:32:00,50.0,25.0,29.96,NNW,330,9.0,22.0,37,-99.99,,,-99.99,,2013-03-27 18:32:00,
2013-03-27 14:42:00,50.0,25.0,29.96,NW,320,15.0,22.0,37,-99.99,,,-99.99,,2013-03-27 18:42:00,
2013-03-27 14:52:00,50.0,25.0,29.95,NNW,330,16.0,21.0,37,-99.99,,,-99.99,,2013-03-27 18:52:00,
2013-03-27 15:03:00,50.0,25.0,29.95,WNW,290,13.0,21.0,37,-99.99,,,-99.99,,2013-03-27 19:03:00,
2013-03-27 15:12:00,50.0,23.0,29.95,NW,310,12.0,23.0,34,-99.99,,,-99.99,,2013-03-27 19:12:00,
2013-03-27 15:22:00,48.0,23.0,29.95,NW,320,14.0,24.0,36,-99.99,,,-99.99,,2013-03-27 19:22:00,
2013-03-27 15:32:00,48.0,25.0,29.95,WNW,290,10.0,-999.0,39,-99.99,,,-99.99,,2013-03-27 19:32:00,
2013-03-27 15:42:00,50.0,25.0,29.95,NW,320,6.0,21.0,37,-99.99,,,-99.99,,2013-03-27 19:42:00,
2013-03-27 15:52:00,48.0,25.0,29.95,NW,310,9.0,20.0,39,-99.99,,,-99.99,,2013-03-27 19:52:00,
2013-03-27 16:03:00,48.0,25.0,29.95,NW,310,9.0,20.0,39,-99.99,,,-99.99,,2013-03-27 20:03:00,
2013-03-27 16:12:00,48.0,23.0,29.95,NNW,330,15.0,22.0,36,-99.99,,,-99.99,,2013-03-27 20:12:00,
2013-03-27 16:22:00,50.0,23.0,29.94,NW,320,13.0,22.0,34,-99.99,,,-99.99,,2013-03-27 20:22:00,
2013-03-27 16:32:00,48.0,25.0,29.95,NW,320,8.0,21.0,39,-99.99,,,-99.99,,2013-03-27 20:32:00,
2013-03-27 16:42:00,50.0,25.0,29.95,NW,320,7.0,21.0,37,-99.99,,,-99.99,,2013-03-27 20:42:00,
2013-03-27 16:52:00,50.0,23.0,29.94,WNW,300,10.0,23.0,34,-99.99,,,-99.99,,2013-03-27 20:52:00,
2013-03-27 17:02:00,50.0,23.0,29.94,WNW,300,10.0,23.0,34,-99.99,,,-99.99,,2013-03-27 21:02:00,
2013-03-27 17:12:00,50.0,25.0,29.95,NW,320,14.0,23.0,37,-99.99,,,-99.99,,2013-03-27 21:12:00,
2013-03-27 17:22:00,50.0,25.0,29.95,WNW,300,16.0,24.0,37,-99.99,,,-99.99,,2013-03-27 21:22:00,
2013-03-27 17:32:00,50.0,23.0,29.95,NW,310,10.0,25.0,34,-99.99,,,-99.99,,2013-03-27 21:32:00,
2013-03-27 17:43:00,50.0,25.0,29.95,WNW,290,12.0,21.0,37,-99.99,,,-99.99,,2013-03-27 21:43:00,
2013-03-27 17:52:00,50.0,25.0,29.95,NNW,340,18.0,22.0,37,-99.99,,,-99.99,,2013-03-27 21:52:00,
2013-03-27 18:03:00,50.0,25.0,29.95,NNW,340,18.0,22.0,37,-99.99,,,-99.99,,2013-03-27 22:03:00,
2013-03-27 18:12:00,50.0,25.0,29.96,NNW,330,15.0,23.0,37,-99.99,,,-99.99,,2013-03-27 22:12:00,
2013-03-27 18:23:00,48.0,25.0,29.97,NNW,330,14.0,20.0,39,-99.99,,,-99.99,,2013-03-27 22:23:00,
2013-03-27 18:33:00,48.0,25.0,29.96,WNW,290,14.0,21.0,39,-99.99,,,-99.99,,2013-03-27 22:33:00,
2013-03-27 18:42:00,48.0,25.0,29.97,NNW,330,9.0,21.0,39,-99.99,,,-99.99,,2013-03-27 22:42:00,
2013-03-27 18:52:00,48.0,27.0,29.98,NW,310,14.0,23.0,42,-99.99,,,-99.99,,2013-03-27 22:52:00,
2013-03-27 19:02:00,48.0,27.0,29.98,NW,310,14.0,23.0,42,-99.99,,,-99.99,,2013-03-27 23:02:00,
2013-03-27 19:12:00,46.0,27.0,29.98,NW,310,8.0,-999.0,45,-99.99,,,-99.99,,2013-03-27 23:12:00,
2013-03-27 19:22:00,46.0,27.0,29.98,NW,310,7.0,-999.0,45,-99.99,,,-99.99,,2013-03-27 23:22:00,
2013-03-27 19:32:00,45.0,25.0,29.99,NW,310,8.0,-999.0,45,-99.99,,,-99.99,,2013-03-27 23:32:00,
2013-03-27 19:42:00,45.0,25.0,29.99,WNW,300,7.0,-999.0,45,-99.99,,,-99.99,,2013-03-27 23:42:00,
2013-03-27 19:52:00,45.0,25.0,29.99,WNW,300,7.0,-999.0,45,-99.99,,,-99.99,,2013-03-27 23:52:00,
2013-03-27 20:02:00,45.0,25.0,29.99,WNW,300,7.0,-999.0,45,-99.99,,,-99.99,,2013-03-28 00:02:00,
2013-03-27 20:12:00,45.0,25.0,30.00,WNW,290,7.0,-999.0,45,-99.99,,,-99.99,,2013-03-28 00:12:00,
2013-03-27 20:22:00,45.0,27.0,30.01,WNW,300,3.0,-999.0,48,-99.99,,,-99.99,,2013-03-28 00:22:00,
2013-03-27 20:32:00,43.0,25.0,30.01,WNW,290,3.0,-999.0,48,-99.99,,,-99.99,,2013-03-28 00:32:00,
2013-03-27 20:43:00,43.0,27.0,30.01,WNW,290,5.0,-999.0,52,-99.99,,,-99.99,,2013-03-28 00:43:00,
2013-03-27 20:52:00,43.0,25.0,30.02,WNW,300,6.0,-999.0,48,-99.99,,,-99.99,,2013-03-28 00:52:00,
2013-03-27 21:02:00,43.0,25.0,30.02,WNW,300,6.0,-999.0,48,-99.99,,,-99.99,,2013-03-28 01:02:00,
2013-03-27 21:12:00,45.0,27.0,30.02,WNW,300,8.0,-999.0,48,-99.99,,,-99.99,,2013-03-28 01:12:00,
2013-03-27 21:22:00,45.0,27.0,30.03,WNW,290,6.0,16.0,48,-99.99,,,-99.99,,2013-03-28 01:22:00,
2013-03-27 21:32:00,45.0,27.0,30.03,WNW,300,8.0,-999.0,48,-99.99,,,-99.99,,2013-03-28 01:32:00,
2013-03-27 21:42:00,43.0,28.0,30.03,NW,310,12.0,-999.0,56,-99.99,,,-99.99,,2013-03-28 01:42:00,
2013-03-27 21:52:00,43.0,28.0,30.04,WNW,300,10.0,-999.0,56,-99.99,,,-99.99,,2013-03-28 01:52:00,
2013-03-27 22:03:00,43.0,28.0,30.04,WNW,300,10.0,-999.0,56,-99.99,,,-99.99,,2013-03-28 02:03:00,
2013-03-27 22:12:00,41.0,28.0,30.04,NW,310,9.0,-999.0,60,-99.99,,,-99.99,,2013-03-28 02:12:00,
2013-03-27 22:22:00,43.0,28.0,30.04,NW,320,9.0,-999.0,56,-99.99,,,-99.99,,2013-03-28 02:22:00,
2013-03-27 22:32:00,41.0,28.0,30.04,NW,320,9.0,-999.0,60,-99.99,,,-99.99,,2013-03-28 02:32:00,
2013-03-27 22:42:00,41.0,28.0,30.04,NW,320,9.0,-999.0,60,-99.99,,,-99.99,,2013-03-28 02:42:00,
2013-03-27 22:52:00,41.0,28.0,30.04,NW,320,9.0,-999.0,60,-99.99,,,-99.99,,2013-03-28 02:52:00,
2013-03-27 23:02:00,41.0,28.0,30.04,WNW,300,7.0,-999.0,60,-99.99,,,-99.99,,2013-03-28 03:02:00,
2013-03-27 23:12:00,41.0,28.0,30.04,NW,320,9.0,-999.0,60,-99.99,,,-99.99,,2013-03-28 03:12:00,
2013-03-27 23:22:00,39.0,28.0,30.04,WNW,300,10.0,-999.0,64,-99.99,,,-99.99,,2013-03-28 03:22:00,
2013-03-27 23:33:00,39.0,28.0,30.04,NW,310,6.0,-999.0,64,-99.99,,,-99.99,,2013-03-28 03:33:00,
2013-03-27 23:43:00,39.0,28.0,30.04,WNW,300,6.0,-999.0,64,-99.99,,,-99.99,,2013-03-28 03:43:00,
2013-03-27 23:52:00,39.0,28.0,30.04,NW,310,6.0,-999.0,64,-99.99,,,-99.99,,2013-03-28 03:52:00,